LIPL/QBS METAR and TAF weather

Enter ICAO airport designator
Station Type Date Time Source
LIPL METAR 2021/10/24 20:55 UTC NOAA

LIPL 242055Z 09004KT CAVOK 09/06 Q1026 RMK SCT SCT230 VIS MIN 9999 WIND THR31 08003KT WIND THR13 08002KT BLU


Station Type Date Time Source
LIPL Decoded METAR 2021/10/24 20:55 UTC NOAA

Brescia / Ghedi, Italy (LIPL) 45-25N 010-17E 97M
Oct 24, 2021 - 04:55 PM EDT / 2021.10.24 2055 UTC
Wind: from the E (090 degrees) at 5 MPH (4 KT):0
Visibility: greater than 7 mile(s):0
Temperature: 48 F (9 C)
Dew Point: 42 F (6 C)
Relative Humidity: 81%
Pressure (altimeter): 30.30 in. Hg (1026 hPa)
ob: LIPL 242055Z 09004KT CAVOK 09/06 Q1026 RMK SCT SCT230 VIS MIN 9999 WIND THR31 08003KT WIND THR13 08002KT BLU
cycle: 21

Station Type Date Time Source
LIPL TAF 2021/07/07 09:24 UTC NOAA

TAF TAF LIPL 070800Z 0709/0721 12008KT CAVOK

Example: see airport list